createdAt,value
2019-02-24T00:01:29.651Z,14.90
2019-02-24T00:03:57.300Z,15.83
2019-02-24T00:06:24.948Z,17.20
2019-02-24T00:08:52.436Z,14.63
2019-02-24T00:11:19.972Z,14.57
2019-02-24T00:13:47.759Z,15.10
2019-02-24T00:16:15.664Z,18.77
2019-02-24T00:18:44.371Z,14.57
2019-02-24T00:21:13.784Z,19.50
2019-02-24T00:23:41.500Z,14.07
2019-02-24T00:26:09.049Z,16.83
2019-02-24T00:28:36.596Z,15.80
2019-02-24T00:31:04.158Z,13.00
2019-02-24T00:33:31.776Z,14.40
2019-02-24T00:35:59.426Z,17.10
2019-02-24T00:38:26.972Z,14.93
2019-02-24T00:40:54.485Z,16.13
2019-02-24T00:43:22.029Z,17.93
2019-02-24T00:45:49.622Z,14.13
2019-02-24T00:48:17.231Z,15.27
2019-02-24T00:50:44.828Z,16.23
2019-02-24T00:53:13.665Z,16.63
2019-02-24T00:55:41.789Z,15.83
2019-02-24T00:58:15.901Z,15.33
2019-02-24T01:00:38.774Z,15.10
2019-02-24T01:03:06.332Z,14.90
2019-02-24T01:05:33.947Z,14.63
2019-02-24T01:08:01.487Z,17.90
2019-02-24T01:10:30.915Z,16.83
2019-02-24T01:12:58.437Z,19.27
2019-02-24T01:15:26.002Z,17.40
2019-02-24T01:17:55.547Z,15.63
2019-02-24T01:20:23.149Z,15.13
2019-02-24T01:22:50.785Z,15.73
2019-02-24T01:25:20.230Z,15.53
2019-02-24T01:27:47.937Z,16.47
2019-02-24T01:30:16.663Z,15.83
2019-02-24T01:32:45.403Z,16.23
2019-02-24T01:35:13.115Z,15.00
2019-02-24T01:37:40.699Z,16.50
2019-02-24T01:40:08.332Z,14.77
2019-02-24T01:42:36.013Z,14.50
2019-02-24T01:45:04.924Z,14.47
2019-02-24T01:47:33.810Z,13.50
2019-02-24T01:50:02.503Z,16.70
2019-02-24T01:52:30.225Z,16.13
2019-02-24T01:54:57.979Z,12.63
2019-02-24T01:57:25.632Z,13.57
2019-02-24T01:59:53.280Z,13.63
2019-02-24T02:02:20.811Z,13.23
2019-02-24T02:04:48.506Z,14.20
2019-02-24T02:07:16.140Z,13.50
2019-02-24T02:09:43.693Z,13.50
2019-02-24T02:12:13.222Z,14.57
2019-02-24T02:14:40.734Z,12.10
2019-02-24T02:17:09.582Z,15.40
2019-02-24T02:19:38.495Z,13.83
2019-02-24T02:22:06.086Z,14.77
2019-02-24T02:24:33.677Z,15.03
2019-02-24T02:27:01.304Z,12.70
2019-02-24T02:29:28.948Z,14.53
2019-02-24T02:31:57.625Z,13.90
2019-02-24T02:34:25.258Z,13.87
2019-02-24T02:36:54.632Z,16.20
2019-02-24T02:39:22.187Z,13.50
2019-02-24T02:41:50.039Z,11.40
2019-02-24T02:44:19.369Z,13.43
2019-02-24T02:46:47.356Z,12.70
2019-02-24T02:49:14.878Z,13.83
2019-02-24T02:51:42.517Z,13.70
2019-02-24T02:54:10.114Z,15.40
2019-02-24T02:56:37.740Z,13.43
2019-02-24T02:59:06.291Z,14.20
2019-02-24T03:01:33.757Z,13.97
2019-02-24T03:04:01.262Z,16.57
2019-02-24T03:06:40.255Z,16.63
2019-02-24T03:09:10.076Z,14.80
2019-02-24T03:11:37.820Z,16.77
2019-02-24T03:14:05.316Z,12.97
2019-02-24T03:16:32.910Z,14.13
2019-02-24T03:19:00.531Z,14.97
2019-02-24T03:21:28.103Z,11.93
2019-02-24T03:23:55.742Z,11.73
2019-02-24T03:26:23.222Z,13.40
2019-02-24T03:28:50.840Z,13.07
2019-02-24T03:31:19.914Z,13.30
2019-02-24T03:33:47.578Z,14.73
2019-02-24T03:36:16.449Z,15.40
2019-02-24T03:38:44.056Z,11.43
2019-02-24T03:41:13.548Z,10.70
2019-02-24T03:43:41.148Z,11.50
2019-02-24T03:46:08.725Z,14.53
2019-02-24T03:48:36.753Z,12.07
2019-02-24T03:51:04.299Z,12.07
2019-02-24T03:53:31.802Z,10.77
2019-02-24T03:55:59.394Z,11.63
2019-02-24T03:58:26.980Z,10.23
2019-02-24T04:00:54.604Z,11.90
2019-02-24T04:03:23.158Z,11.43
2019-02-24T04:05:50.837Z,10.13
2019-02-24T04:08:18.317Z,13.30
2019-02-24T04:10:45.951Z,9.30
2019-02-24T04:13:13.766Z,10.47
2019-02-24T04:15:41.388Z,11.40
2019-02-24T04:18:10.111Z,9.33
2019-02-24T04:20:40.014Z,12.53
2019-02-24T04:23:07.583Z,8.90
2019-02-24T04:25:35.207Z,10.07
2019-02-24T04:28:02.820Z,10.00
2019-02-24T04:30:32.358Z,10.53
2019-02-24T04:33:01.884Z,9.27
2019-02-24T04:35:29.593Z,10.70
2019-02-24T04:37:57.227Z,10.17
2019-02-24T04:40:24.797Z,12.73
2019-02-24T04:42:52.527Z,10.20
2019-02-24T04:45:20.252Z,9.80
2019-02-24T04:47:47.985Z,11.33
2019-02-24T04:50:15.610Z,11.87
2019-02-24T04:52:43.536Z,10.30
2019-02-24T04:55:11.197Z,8.90
2019-02-24T04:57:40.551Z,9.67
2019-02-24T05:00:08.195Z,11.00
2019-02-24T05:02:35.717Z,12.03
2019-02-24T05:05:03.898Z,12.50
2019-02-24T05:07:31.348Z,10.10
2019-02-24T05:09:59.006Z,10.27
2019-02-24T05:12:26.582Z,11.80
2019-02-24T05:14:55.459Z,12.20
2019-02-24T05:17:23.101Z,11.47
2019-02-24T05:19:51.708Z,11.47
2019-02-24T05:22:19.217Z,12.43
2019-02-24T05:24:46.787Z,9.53
2019-02-24T05:27:14.477Z,11.40
2019-02-24T05:29:45.934Z,12.63
2019-02-24T05:32:11.511Z,11.73
2019-02-24T05:34:39.158Z,9.67
2019-02-24T05:37:08.501Z,12.43
2019-02-24T05:39:36.119Z,11.57
2019-02-24T05:42:03.886Z,12.23
2019-02-24T05:44:31.472Z,10.27
2019-02-24T05:46:59.009Z,11.87
2019-02-24T05:49:26.573Z,12.13
2019-02-24T05:51:54.087Z,10.73
2019-02-24T05:54:21.637Z,10.77
2019-02-24T05:56:49.180Z,11.70
2019-02-24T05:59:17.865Z,10.70
2019-02-24T06:01:45.472Z,10.20
2019-02-24T06:04:13.161Z,10.60
2019-02-24T06:06:40.860Z,12.13
2019-02-24T06:09:08.532Z,11.40
2019-02-24T06:11:36.156Z,10.27
2019-02-24T06:14:04.064Z,10.20
2019-02-24T06:16:31.714Z,12.07
2019-02-24T06:18:59.359Z,11.33
2019-02-24T06:21:27.040Z,10.57
2019-02-24T06:23:54.657Z,11.17
2019-02-24T06:26:23.018Z,10.67
2019-02-24T06:28:50.519Z,13.50
2019-02-24T06:31:18.286Z,11.93
2019-02-24T06:33:45.950Z,10.63
2019-02-24T06:36:13.629Z,12.07
2019-02-24T06:38:44.448Z,11.50
2019-02-24T06:41:13.837Z,9.80
2019-02-24T06:43:41.445Z,12.47
2019-02-24T06:46:09.065Z,12.17
2019-02-24T06:48:37.803Z,10.23
2019-02-24T06:51:07.270Z,15.03
2019-02-24T06:53:34.912Z,14.40
2019-02-24T06:56:05.425Z,15.77
2019-02-24T06:58:33.088Z,14.23
2019-02-24T07:01:00.730Z,14.37
2019-02-24T07:03:28.497Z,11.47
2019-02-24T07:05:57.270Z,12.37
2019-02-24T07:08:24.898Z,13.77
2019-02-24T07:10:52.847Z,16.07
2019-02-24T07:13:21.589Z,13.07
2019-02-24T07:15:49.124Z,12.63
2019-02-24T07:18:17.985Z,15.30
2019-02-24T07:23:13.843Z,9.77
2019-02-24T07:25:41.950Z,11.63
2019-02-24T07:28:18.131Z,11.63
2019-02-24T07:30:48.777Z,12.80
2019-02-24T07:33:18.378Z,13.53
2019-02-24T07:35:46.463Z,11.43
2019-02-24T07:38:15.959Z,11.33
2019-02-24T07:40:43.529Z,10.97
2019-02-24T07:43:11.189Z,9.33
2019-02-24T07:45:38.689Z,10.50
2019-02-24T07:48:06.399Z,11.90
2019-02-24T07:50:33.978Z,11.57
2019-02-24T07:53:01.769Z,13.17
2019-02-24T07:55:29.464Z,11.80
2019-02-24T07:58:00.550Z,10.47
2019-02-24T08:00:32.315Z,10.40
2019-02-24T08:02:57.649Z,9.90
2019-02-24T08:05:25.292Z,11.10
2019-02-24T08:07:52.926Z,10.17
2019-02-24T08:10:20.511Z,10.47
2019-02-24T08:12:49.194Z,10.23
2019-02-24T08:15:16.831Z,13.90
2019-02-24T08:17:44.512Z,12.20
2019-02-24T08:20:13.152Z,11.37
2019-02-24T08:22:40.852Z,12.07
2019-02-24T08:25:08.457Z,12.87
2019-02-24T08:27:37.883Z,12.17
2019-02-24T08:30:06.870Z,12.50
2019-02-24T08:32:34.780Z,11.70
2019-02-24T08:35:02.411Z,11.50
2019-02-24T08:37:30.108Z,9.53
2019-02-24T08:39:57.776Z,11.50
2019-02-24T08:42:26.579Z,12.07
2019-02-24T08:44:54.335Z,10.47
2019-02-24T08:47:23.761Z,11.70
2019-02-24T08:49:51.495Z,11.50
2019-02-24T08:52:20.243Z,9.40
2019-02-24T08:54:47.854Z,10.27
2019-02-24T08:57:15.438Z,9.67
2019-02-24T08:59:43.443Z,10.43
2019-02-24T09:02:11.308Z,10.50
2019-02-24T09:04:38.966Z,9.73
2019-02-24T09:07:19.225Z,11.67
2019-02-24T09:09:50.601Z,8.47
2019-02-24T09:12:18.339Z,10.83
2019-02-24T09:14:45.977Z,8.73
2019-02-24T09:17:26.103Z,8.43
2019-02-24T09:19:53.796Z,10.93
2019-02-24T09:22:21.517Z,10.80
2019-02-24T09:24:50.291Z,11.30
2019-02-24T09:27:17.790Z,10.40
2019-02-24T09:29:45.384Z,10.53
2019-02-24T09:32:14.849Z,11.50
2019-02-24T09:34:55.411Z,10.03
2019-02-24T09:37:23.209Z,11.90
2019-02-24T09:39:50.811Z,9.10
2019-02-24T09:42:18.526Z,8.47
2019-02-24T09:44:46.196Z,10.30
2019-02-24T09:47:15.024Z,8.17
2019-02-24T09:49:42.706Z,9.83
2019-02-24T09:52:10.440Z,9.03
2019-02-24T09:54:39.358Z,9.80
2019-02-24T09:57:06.966Z,10.87
2019-02-24T09:59:35.759Z,8.57
2019-02-24T10:02:04.668Z,8.60
2019-02-24T10:04:32.362Z,9.87
2019-02-24T10:07:01.516Z,10.07
2019-02-24T10:09:29.319Z,10.63
2019-02-24T10:11:56.966Z,9.93
2019-02-24T10:14:24.614Z,10.17
2019-02-24T10:16:53.983Z,10.33
2019-02-24T10:19:21.520Z,8.47
2019-02-24T10:21:49.182Z,7.17
2019-02-24T10:24:17.002Z,12.07
2019-02-24T10:26:44.673Z,9.30
2019-02-24T10:29:12.291Z,10.23
2019-02-24T10:31:39.962Z,9.13
2019-02-24T10:34:07.759Z,9.60
2019-02-24T10:36:36.543Z,10.30
2019-02-24T10:39:04.612Z,9.40
2019-02-24T10:41:34.268Z,7.40
2019-02-24T10:44:01.894Z,8.43
2019-02-24T10:46:29.558Z,7.67
2019-02-24T10:49:03.313Z,7.60
2019-02-24T10:51:26.761Z,7.90
2019-02-24T10:53:54.416Z,9.57
2019-02-24T10:56:22.055Z,8.13
2019-02-24T10:58:49.726Z,9.27
2019-02-24T11:01:17.358Z,10.57
2019-02-24T11:03:45.110Z,9.30
2019-02-24T11:06:13.001Z,9.03
2019-02-24T11:08:40.744Z,7.17
2019-02-24T11:11:08.424Z,8.60
2019-02-24T11:13:37.447Z,7.83
2019-02-24T11:16:05.071Z,10.13
2019-02-24T11:18:35.227Z,10.53
2019-02-24T11:21:02.920Z,9.20
2019-02-24T11:23:31.443Z,7.53
2019-02-24T11:26:02.880Z,10.97
2019-02-24T11:28:32.189Z,11.13
2019-02-24T11:31:00.403Z,7.33
2019-02-24T11:33:29.114Z,10.70
2019-02-24T11:35:57.130Z,8.47
2019-02-24T11:38:24.855Z,11.03
2019-02-24T11:40:52.454Z,10.57
2019-02-24T11:43:20.121Z,11.10
2019-02-24T11:45:48.896Z,9.97
2019-02-24T11:48:36.409Z,10.13
2019-02-24T11:51:04.036Z,8.73
2019-02-24T11:53:31.714Z,8.17
2019-02-24T11:55:59.445Z,8.60
2019-02-24T11:58:27.142Z,8.83
2019-02-24T12:00:54.664Z,12.57
2019-02-24T12:03:22.419Z,11.30
2019-02-24T12:05:51.690Z,8.67
2019-02-24T12:08:22.459Z,8.23
2019-02-24T12:10:52.803Z,7.43
2019-02-24T12:13:21.877Z,8.30
2019-02-24T12:15:49.553Z,8.23
2019-02-24T12:18:17.334Z,6.27
2019-02-24T12:20:45.074Z,8.73
2019-02-24T12:23:14.524Z,7.47
2019-02-24T12:25:42.210Z,8.20
2019-02-24T12:28:09.815Z,6.53
2019-02-24T12:30:37.639Z,8.23
2019-02-24T12:33:05.481Z,7.60
2019-02-24T12:35:33.137Z,5.70
2019-02-24T12:38:02.541Z,10.93
2019-02-24T12:40:30.067Z,7.07
2019-02-24T12:42:58.176Z,7.53
2019-02-24T12:45:25.818Z,7.13
2019-02-24T12:47:53.520Z,6.17
2019-02-24T12:50:21.069Z,6.73
2019-02-24T12:52:48.679Z,7.03
2019-02-24T12:55:16.415Z,8.10
2019-02-24T12:57:44.151Z,6.30
2019-02-24T13:00:14.994Z,7.00
2019-02-24T13:02:42.687Z,6.53
2019-02-24T13:05:10.310Z,6.13
2019-02-24T13:07:38.240Z,8.33
2019-02-24T13:10:08.013Z,7.77
2019-02-24T13:12:36.925Z,7.37
2019-02-24T13:15:05.047Z,6.57
2019-02-24T13:17:34.040Z,6.57
2019-02-24T13:20:01.678Z,5.77
2019-02-24T13:22:29.510Z,7.20
2019-02-24T13:24:57.170Z,7.67
2019-02-24T13:27:24.958Z,6.63
2019-02-24T13:29:52.736Z,6.23
2019-02-24T13:32:20.348Z,6.33
2019-02-24T13:34:48.164Z,6.40
2019-02-24T13:37:16.060Z,7.53
2019-02-24T13:39:43.829Z,5.73
2019-02-24T13:42:11.689Z,6.20
2019-02-24T13:44:39.376Z,6.67
2019-02-24T13:47:07.212Z,5.57
2019-02-24T13:49:36.560Z,6.50
2019-02-24T13:52:04.230Z,6.43
2019-02-24T13:54:34.504Z,6.37
2019-02-24T13:57:04.279Z,6.20
2019-02-24T13:59:35.176Z,6.57
2019-02-24T14:02:04.592Z,7.13
2019-02-24T14:04:36.391Z,6.33
2019-02-24T14:07:04.178Z,6.37
2019-02-24T14:09:32.780Z,5.90
2019-02-24T14:12:00.373Z,7.27
2019-02-24T14:14:29.731Z,6.37
2019-02-24T14:16:57.605Z,5.30
2019-02-24T14:19:25.506Z,6.27
2019-02-24T14:21:53.133Z,6.20
2019-02-24T14:24:40.323Z,6.53
2019-02-24T14:27:07.994Z,5.47
2019-02-24T14:29:35.741Z,5.50
2019-02-24T14:32:03.384Z,6.00
2019-02-24T14:34:31.030Z,5.43
2019-02-24T14:36:59.545Z,4.70
2019-02-24T14:39:27.298Z,6.13
2019-02-24T14:41:55.237Z,4.77
2019-02-24T14:44:22.972Z,4.63
2019-02-24T14:46:50.659Z,4.47
2019-02-24T14:49:19.405Z,5.40
2019-02-24T14:51:47.140Z,5.20
2019-02-24T14:54:15.896Z,5.47
2019-02-24T14:56:44.742Z,5.73
2019-02-24T14:59:12.483Z,6.93
2019-02-24T15:01:40.132Z,6.30
2019-02-24T15:04:09.349Z,6.33
2019-02-24T15:06:38.720Z,6.00
2019-02-24T15:09:06.575Z,6.83
2019-02-24T15:11:35.708Z,7.17
2019-02-24T15:14:03.506Z,5.03
2019-02-24T15:16:32.229Z,5.77
2019-02-24T15:19:00.019Z,5.90
2019-02-24T15:21:27.633Z,5.73
2019-02-24T15:23:55.310Z,6.25
2019-02-24T15:26:24.855Z,5.13
2019-02-24T15:28:54.141Z,6.10
2019-02-24T15:31:23.609Z,4.62
2019-02-24T15:33:51.226Z,3.90
2019-02-24T15:36:18.847Z,4.53
2019-02-24T15:38:46.499Z,5.20
2019-02-24T15:41:14.263Z,6.05
2019-02-24T15:43:41.793Z,5.45
2019-02-24T15:46:09.457Z,6.42
2019-02-24T15:48:37.126Z,6.35
2019-02-24T15:51:04.728Z,5.67
2019-02-24T15:53:32.328Z,6.77
2019-02-24T15:56:01.254Z,6.40
2019-02-24T15:58:28.885Z,5.50
2019-02-24T16:00:56.543Z,5.30
2019-02-24T16:03:24.102Z,5.43
2019-02-24T16:06:04.624Z,5.87
2019-02-24T16:08:32.327Z,6.07
2019-02-24T16:10:59.903Z,5.20
2019-02-24T16:13:29.404Z,6.17
2019-02-24T16:15:57.123Z,6.53
2019-02-24T16:18:26.020Z,5.53
2019-02-24T16:20:53.479Z,7.07
2019-02-24T16:23:21.060Z,5.53
2019-02-24T16:25:48.685Z,5.67
2019-02-24T16:28:16.181Z,5.90
2019-02-24T16:30:43.968Z,5.63
2019-02-24T16:33:11.588Z,5.00
2019-02-24T16:35:39.353Z,5.20
2019-02-24T16:38:06.946Z,4.70
2019-02-24T16:40:34.540Z,5.03
2019-02-24T16:43:02.189Z,5.97
2019-02-24T16:45:30.110Z,5.03
2019-02-24T16:47:58.793Z,6.87
2019-02-24T16:50:26.531Z,6.50
2019-02-24T16:52:54.143Z,6.13
2019-02-24T16:55:21.792Z,6.63
2019-02-24T16:57:49.466Z,7.27
2019-02-24T17:00:18.145Z,6.30
2019-02-24T17:02:47.761Z,8.27
2019-02-24T17:05:15.471Z,9.53
2019-02-24T17:07:44.503Z,9.40
2019-02-24T17:10:13.076Z,7.10
2019-02-24T17:12:42.530Z,8.33
2019-02-24T17:15:10.332Z,7.00
2019-02-24T17:17:37.931Z,7.37
2019-02-24T17:20:07.050Z,7.40
2019-02-24T17:22:34.864Z,13.27
2019-02-24T17:25:04.123Z,16.27
2019-02-24T17:27:31.786Z,20.77
2019-02-24T17:29:59.399Z,47.70
2019-02-24T17:32:26.996Z,19.97
2019-02-24T17:34:54.684Z,17.60
2019-02-24T17:37:22.375Z,19.53
2019-02-24T17:39:50.055Z,21.27
2019-02-24T17:42:17.663Z,20.67
2019-02-24T17:44:45.190Z,19.93
2019-02-24T17:47:12.806Z,33.40
2019-02-24T17:49:40.507Z,36.30
2019-02-24T17:52:08.159Z,32.17
2019-02-24T17:54:35.805Z,28.63
2019-02-24T17:57:03.465Z,32.43
2019-02-24T17:59:39.973Z,18.07
2019-02-24T18:02:00.599Z,16.60
2019-02-24T18:04:28.248Z,8.90
2019-02-24T18:06:55.986Z,8.10
2019-02-24T18:09:23.626Z,8.10
2019-02-24T18:11:51.205Z,6.47
2019-02-24T18:14:18.946Z,6.93
2019-02-24T18:16:46.600Z,5.90
2019-02-24T18:19:14.289Z,10.83
2019-02-24T18:21:42.020Z,8.17
2019-02-24T18:24:09.744Z,7.90
2019-02-24T18:26:37.390Z,7.57
2019-02-24T18:29:05.104Z,7.83
2019-02-24T18:31:32.472Z,8.70
2019-02-24T18:33:59.782Z,10.27
2019-02-24T18:36:27.148Z,9.43
2019-02-24T18:38:54.462Z,13.33
2019-02-24T18:41:21.767Z,12.10
2019-02-24T18:43:49.164Z,11.53
2019-02-24T18:46:19.076Z,12.97
2019-02-24T18:48:48.777Z,10.67
2019-02-24T18:51:16.291Z,10.70
2019-02-24T18:53:43.831Z,9.97
2019-02-24T18:56:13.014Z,10.30
2019-02-24T18:58:42.420Z,10.80
2019-02-24T19:01:09.753Z,8.97
2019-02-24T19:03:37.066Z,9.93
2019-02-24T19:06:04.435Z,11.13
2019-02-24T19:08:32.941Z,8.87
2019-02-24T19:11:00.445Z,8.80
2019-02-24T19:13:27.916Z,7.10
2019-02-24T19:15:55.216Z,8.90
2019-02-24T19:18:23.621Z,9.50
2019-02-24T19:20:51.114Z,8.67
2019-02-24T19:23:18.444Z,8.87
2019-02-24T19:25:45.885Z,7.43
2019-02-24T19:28:13.220Z,10.93
2019-02-24T19:30:40.637Z,10.07
2019-02-24T19:33:07.971Z,12.63
2019-02-24T19:35:35.443Z,10.13
2019-02-24T19:38:02.708Z,10.87
2019-02-24T19:40:30.147Z,17.40
2019-02-24T19:42:57.821Z,13.67
2019-02-24T19:45:25.669Z,9.00
2019-02-24T19:47:52.949Z,9.67
2019-02-24T19:50:20.674Z,9.83
2019-02-24T19:52:48.252Z,11.50
2019-02-24T19:55:15.706Z,9.57
2019-02-24T19:57:43.223Z,10.97
2019-02-24T20:00:16.320Z,12.60
2019-02-24T20:02:43.693Z,12.17
2019-02-24T20:05:12.322Z,12.83
2019-02-24T20:07:46.397Z,14.33
2019-02-24T20:10:15.773Z,14.67
2019-02-24T20:12:43.096Z,12.00
2019-02-24T20:15:11.428Z,13.37
2019-02-24T20:17:38.890Z,16.63
2019-02-24T20:20:07.239Z,12.20
2019-02-24T20:22:35.657Z,13.70
2019-02-24T20:25:03.737Z,14.13
2019-02-24T20:27:33.056Z,11.03
2019-02-24T20:30:04.524Z,14.27
2019-02-24T20:32:34.970Z,12.37
2019-02-24T20:35:02.401Z,15.97
2019-02-24T20:37:29.688Z,11.87
2019-02-24T20:39:58.053Z,13.03
2019-02-24T20:42:25.543Z,11.93
2019-02-24T20:44:52.953Z,12.73
2019-02-24T20:47:20.247Z,8.60
2019-02-24T20:49:47.633Z,10.23
2019-02-24T20:52:15.041Z,8.00
2019-02-24T20:54:42.491Z,8.33
2019-02-24T20:57:09.867Z,23.13
2019-02-24T20:59:37.236Z,23.10
2019-02-24T21:02:05.612Z,12.17
2019-02-24T21:04:33.080Z,10.23
2019-02-24T21:07:00.652Z,8.90
2019-02-24T21:09:28.027Z,7.70
2019-02-24T21:11:57.232Z,7.57
2019-02-24T21:14:24.525Z,6.87
2019-02-24T21:16:51.862Z,8.67
2019-02-24T21:19:19.172Z,10.63
2019-02-24T21:21:46.520Z,8.10
2019-02-24T21:24:13.848Z,8.90
2019-02-24T21:26:44.398Z,15.50
2019-02-24T21:29:11.804Z,12.67
2019-02-24T21:31:40.900Z,13.50
2019-02-24T21:34:08.363Z,14.37
2019-02-24T21:36:35.632Z,13.97
2019-02-24T21:39:04.429Z,11.67
2019-02-24T21:41:36.231Z,11.73
2019-02-24T21:44:04.122Z,13.97
2019-02-24T21:46:31.793Z,11.80
2019-02-24T21:49:00.450Z,12.83
2019-02-24T21:51:27.909Z,15.87
2019-02-24T21:53:55.532Z,16.63
2019-02-24T21:56:23.047Z,11.53
2019-02-24T21:58:51.414Z,15.30
2019-02-24T22:01:19.824Z,14.77
2019-02-24T22:03:47.138Z,13.30
2019-02-24T22:06:14.466Z,15.47
2019-02-24T22:08:54.612Z,13.70
2019-02-24T22:11:22.000Z,13.43
2019-02-24T22:13:49.448Z,15.97
2019-02-24T22:16:17.837Z,14.33
2019-02-24T22:18:45.269Z,13.87
2019-02-24T22:21:12.564Z,13.53
2019-02-24T22:23:41.006Z,11.40
2019-02-24T22:26:08.366Z,13.50
2019-02-24T22:28:35.628Z,9.37
2019-02-24T22:31:02.921Z,10.77
2019-02-24T22:33:30.297Z,12.10
2019-02-24T22:35:57.665Z,10.00
2019-02-24T22:38:26.065Z,10.77
2019-02-24T22:40:54.553Z,10.57
2019-02-24T22:43:22.309Z,11.07
2019-02-24T22:45:49.557Z,9.57
2019-02-24T22:48:16.958Z,9.47
2019-02-24T22:50:44.247Z,11.77
2019-02-24T22:53:11.565Z,9.93
2019-02-24T22:55:38.828Z,10.53
2019-02-24T22:58:06.265Z,12.37
2019-02-24T23:01:05.898Z,8.17
2019-02-24T23:03:37.065Z,9.60
2019-02-24T23:06:05.378Z,11.40
2019-02-24T23:08:32.872Z,10.90
2019-02-24T23:11:00.215Z,11.50
2019-02-24T23:13:27.502Z,10.13
2019-02-24T23:15:54.863Z,12.37
2019-02-24T23:18:23.295Z,12.77
2019-02-24T23:20:50.597Z,11.60
2019-02-24T23:23:17.871Z,12.43
2019-02-24T23:25:45.297Z,10.17
2019-02-24T23:28:12.626Z,11.33
2019-02-24T23:30:40.029Z,11.83
2019-02-24T23:33:08.451Z,14.73
2019-02-24T23:35:35.733Z,12.60
2019-02-24T23:38:04.294Z,11.83
2019-02-24T23:40:31.701Z,13.70
2019-02-24T23:42:58.993Z,11.23
2019-02-24T23:45:26.317Z,10.57
2019-02-24T23:47:53.617Z,9.77
2019-02-24T23:50:20.890Z,11.80
2019-02-24T23:52:48.180Z,11.97
2019-02-24T23:55:15.434Z,9.43
2019-02-24T23:57:42.751Z,12.63
